sensor_id;sensor_type;location;lat;lon;timestamp;pressure;altitude;pressure_sealevel;temperature;humidity
29163;BME280;20331;53.144;8.208;2023-05-24T00:05:15;102342.28;;;9.92;78.56
29163;BME280;20331;53.144;8.208;2023-05-24T00:15:39;102332.84;;;9.86;78.34
29163;BME280;20331;53.144;8.208;2023-05-24T00:26:00;102330.25;;;9.85;78.31
29163;BME280;20331;53.144;8.208;2023-05-24T00:36:22;102317.34;;;9.77;79.02
29163;BME280;20331;53.144;8.208;2023-05-24T00:46:43;102306.16;;;9.74;79.37
29163;BME280;20331;53.144;8.208;2023-05-24T00:57:04;102316.47;;;9.77;79.44
29163;BME280;20331;53.144;8.208;2023-05-24T01:07:27;102315.63;;;9.79;79.85
29163;BME280;20331;53.144;8.208;2023-05-24T01:18:40;102313.03;;;9.81;78.64
29163;BME280;20331;53.144;8.208;2023-05-24T01:28:35;102308.72;;;9.75;79.42
29163;BME280;20331;53.144;8.208;2023-05-24T01:38:59;102307.84;;;9.81;79.87
29163;BME280;20331;53.144;8.208;2023-05-24T01:49:22;102300.94;;;9.86;81.79
29163;BME280;20331;53.144;8.208;2023-05-24T01:59:46;102295.75;;;9.89;79.44
29163;BME280;20331;53.144;8.208;2023-05-24T02:10:08;102300.09;;;9.84;79.17
29163;BME280;20331;53.144;8.208;2023-05-24T02:20:29;102297.50;;;9.84;79.71
29163;BME280;20331;53.144;8.208;2023-05-24T02:30:51;102295.78;;;9.83;79.84
29163;BME280;20331;53.144;8.208;2023-05-24T02:41:13;102290.59;;;9.86;79.79
29163;BME280;20331;53.144;8.208;2023-05-24T02:51:38;102287.13;;;9.96;79.65
29163;BME280;20331;53.144;8.208;2023-05-24T03:01:59;102276.78;;;9.93;78.46
29163;BME280;20331;53.144;8.208;2023-05-24T03:12:21;102271.59;;;9.99;79.87
29163;BME280;20331;53.144;8.208;2023-05-24T03:22:42;102262.09;;;10.01;79.31
29163;BME280;20331;53.144;8.208;2023-05-24T03:33:03;102261.22;;;10.03;79.00
29163;BME280;20331;53.144;8.208;2023-05-24T03:43:25;102273.28;;;10.06;79.41
29163;BME280;20331;53.144;8.208;2023-05-24T03:53:47;102264.66;;;10.04;79.11
29163;BME280;20331;53.144;8.208;2023-05-24T04:04:08;102268.09;;;10.06;78.97
29163;BME280;20331;53.144;8.208;2023-05-24T04:14:29;102274.13;;;10.08;78.91
29163;BME280;20331;53.144;8.208;2023-05-24T04:24:51;102273.28;;;10.06;79.72
29163;BME280;20331;53.144;8.208;2023-05-24T04:35:13;102262.91;;;10.15;79.56
29163;BME280;20331;53.144;8.208;2023-05-24T04:45:34;102284.44;;;10.23;80.50
29163;BME280;20331;53.144;8.208;2023-05-24T04:55:56;102295.59;;;10.34;79.91
29163;BME280;20331;53.144;8.208;2023-05-24T05:06:17;102299.88;;;10.37;79.92
29163;BME280;20331;53.144;8.208;2023-05-24T05:16:39;102306.72;;;10.47;79.74
29163;BME280;20331;53.144;8.208;2023-05-24T05:27:01;102316.16;;;10.60;78.67
29163;BME280;20331;53.144;8.208;2023-05-24T05:37:23;102309.13;;;10.75;78.70
29163;BME280;20331;53.144;8.208;2023-05-24T05:47:44;102305.56;;;10.88;80.45
29163;BME280;20331;53.144;8.208;2023-05-24T05:58:05;102301.16;;;11.04;79.05
29163;BME280;20331;53.144;8.208;2023-05-24T06:08:27;102321.75;;;11.21;78.98
29163;BME280;20331;53.144;8.208;2023-05-24T06:18:51;102313.88;;;11.30;79.27
29163;BME280;20331;53.144;8.208;2023-05-24T06:29:25;102332.72;;;11.45;78.30
29163;BME280;20331;53.144;8.208;2023-05-24T06:39:46;102317.00;;;11.65;78.02
29163;BME280;20331;53.144;8.208;2023-05-24T06:50:08;102319.44;;;11.80;78.32
29163;BME280;20331;53.144;8.208;2023-05-24T07:00:29;102325.28;;;11.98;77.50
29163;BME280;20331;53.144;8.208;2023-05-24T07:10:51;102339.00;;;12.08;77.61
29163;BME280;20331;53.144;8.208;2023-05-24T07:21:13;102350.16;;;12.14;79.17
29163;BME280;20331;53.144;8.208;2023-05-24T07:31:35;102353.47;;;12.26;78.26
29163;BME280;20331;53.144;8.208;2023-05-24T07:41:57;102356.88;;;12.32;77.39
29163;BME280;20331;53.144;8.208;2023-05-24T07:52:18;102358.44;;;12.44;76.00
29163;BME280;20331;53.144;8.208;2023-05-24T08:02:41;102368.69;;;12.56;76.67
29163;BME280;20331;53.144;8.208;2023-05-24T08:13:02;102360.75;;;12.66;76.05
29163;BME280;20331;53.144;8.208;2023-05-24T08:23:25;102364.91;;;12.76;75.90
29163;BME280;20331;53.144;8.208;2023-05-24T08:33:47;102364.69;;;12.91;76.04
29163;BME280;20331;53.144;8.208;2023-05-24T08:44:10;102381.84;;;13.04;75.21
29163;BME280;20331;53.144;8.208;2023-05-24T08:54:34;102389.59;;;13.07;76.22
29163;BME280;20331;53.144;8.208;2023-05-24T09:04:56;102400.03;;;13.04;76.26
29163;BME280;20331;53.144;8.208;2023-05-24T09:15:18;102406.06;;;13.08;76.07
29163;BME280;20331;53.144;8.208;2023-05-24T09:25:43;102403.31;;;13.17;76.81
29163;BME280;20331;53.144;8.208;2023-05-24T09:36:06;102417.88;;;13.29;75.73
29163;BME280;20331;53.144;8.208;2023-05-24T09:46:28;102417.78;;;13.35;76.50
29163;BME280;20331;53.144;8.208;2023-05-24T09:56:50;102409.72;;;13.50;75.72
29163;BME280;20331;53.144;8.208;2023-05-24T10:07:11;102418.41;;;13.49;77.38
29163;BME280;20331;53.144;8.208;2023-05-24T10:17:33;102428.31;;;13.79;74.44
29163;BME280;20331;53.144;8.208;2023-05-24T10:27:59;102429.94;;;13.83;74.10
29163;BME280;20331;53.144;8.208;2023-05-24T10:38:22;102425.91;;;14.14;73.74
29163;BME280;20331;53.144;8.208;2023-05-24T10:48:44;102416.28;;;14.19;73.93
29163;BME280;20331;53.144;8.208;2023-05-24T11:09:54;102411.41;;;14.45;72.49
29163;BME280;20331;53.144;8.208;2023-05-24T11:20:18;102422.03;;;14.36;73.26
29163;BME280;20331;53.144;8.208;2023-05-24T11:30:41;102421.91;;;14.42;71.41
29163;BME280;20331;53.144;8.208;2023-05-24T11:41:03;102426.16;;;14.87;70.71
29163;BME280;20331;53.144;8.208;2023-05-24T11:51:28;102415.72;;;14.87;71.36
29163;BME280;20331;53.144;8.208;2023-05-24T12:02:00;102427.00;;;14.88;70.53
29163;BME280;20331;53.144;8.208;2023-05-24T12:12:22;102420.72;;;14.96;70.98
29163;BME280;20331;53.144;8.208;2023-05-24T12:22:54;102430.94;;;15.05;71.45
29163;BME280;20331;53.144;8.208;2023-05-24T12:33:19;102436.31;;;14.98;70.52
29163;BME280;20331;53.144;8.208;2023-05-24T12:43:41;102444.22;;;14.95;71.43
29163;BME280;20331;53.144;8.208;2023-05-24T12:54:04;102442.53;;;14.94;70.60
29163;BME280;20331;53.144;8.208;2023-05-24T13:04:26;102450.50;;;14.86;69.38
29163;BME280;20331;53.144;8.208;2023-05-24T13:14:48;102457.56;;;14.81;71.33
29163;BME280;20331;53.144;8.208;2023-05-24T13:25:13;102452.16;;;14.90;71.66
29163;BME280;20331;53.144;8.208;2023-05-24T13:35:34;102449.34;;;14.99;71.83
29163;BME280;20331;53.144;8.208;2023-05-24T13:45:56;102448.53;;;14.97;72.25
29163;BME280;20331;53.144;8.208;2023-05-24T13:56:18;102457.22;;;14.96;72.37
29163;BME280;20331;53.144;8.208;2023-05-24T14:06:40;102455.53;;;14.95;71.89
29163;BME280;20331;53.144;8.208;2023-05-24T14:17:01;102459.75;;;15.01;70.91
29163;BME280;20331;53.144;8.208;2023-05-24T14:27:23;102465.25;;;14.87;70.18
29163;BME280;20331;53.144;8.208;2023-05-24T14:37:45;102469.44;;;14.94;72.20
29163;BME280;20331;53.144;8.208;2023-05-24T14:48:06;102483.09;;;15.05;71.51
29163;BME280;20331;53.144;8.208;2023-05-24T14:58:30;102481.63;;;14.92;72.26
29163;BME280;20331;53.144;8.208;2023-05-24T15:08:52;102495.97;;;14.73;73.06
29163;BME280;20331;53.144;8.208;2023-05-24T15:19:16;102489.00;;;14.72;72.77
29163;BME280;20331;53.144;8.208;2023-05-24T15:29:37;102496.84;;;14.72;72.83
29163;BME280;20331;53.144;8.208;2023-05-24T15:39:59;102490.91;;;14.66;72.39
29163;BME280;20331;53.144;8.208;2023-05-24T15:50:21;102497.06;;;14.62;71.04
29163;BME280;20331;53.144;8.208;2023-05-24T16:01:02;102496.38;;;14.54;72.75
29163;BME280;20331;53.144;8.208;2023-05-24T16:11:24;102502.50;;;14.50;72.28
29163;BME280;20331;53.144;8.208;2023-05-24T16:21:45;102500.06;;;14.42;73.06
29163;BME280;20331;53.144;8.208;2023-05-24T16:32:06;102503.59;;;14.38;72.56
29163;BME280;20331;53.144;8.208;2023-05-24T16:42:28;102486.19;;;14.40;71.58
29163;BME280;20331;53.144;8.208;2023-05-24T16:52:50;102486.19;;;14.40;71.94
29163;BME280;20331;53.144;8.208;2023-05-24T17:03:11;102484.31;;;14.47;71.00
29163;BME280;20331;53.144;8.208;2023-05-24T17:13:33;102489.53;;;14.48;71.20
29163;BME280;20331;53.144;8.208;2023-05-24T17:23:55;102492.09;;;14.50;71.51
29163;BME280;20331;53.144;8.208;2023-05-24T17:34:16;102489.47;;;14.51;72.16
29163;BME280;20331;53.144;8.208;2023-05-24T17:44:38;102486.13;;;14.43;71.94
29163;BME280;20331;53.144;8.208;2023-05-24T17:55:00;102504.44;;;14.40;72.17
29163;BME280;20331;53.144;8.208;2023-05-24T18:05:21;102507.09;;;14.37;72.34
29163;BME280;20331;53.144;8.208;2023-05-24T18:15:43;102508.88;;;14.35;71.40
29163;BME280;20331;53.144;8.208;2023-05-24T18:26:05;102510.56;;;14.36;72.28
29163;BME280;20331;53.144;8.208;2023-05-24T18:36:27;102508.16;;;14.26;72.61
29163;BME280;20331;53.144;8.208;2023-05-24T18:46:49;102508.28;;;14.18;72.98
29163;BME280;20331;53.144;8.208;2023-05-24T18:57:14;102507.72;;;14.01;73.77
29163;BME280;20331;53.144;8.208;2023-05-24T19:07:35;102516.66;;;13.85;73.66
29163;BME280;20331;53.144;8.208;2023-05-24T19:17:57;102527.31;;;13.70;74.54
29163;BME280;20331;53.144;8.208;2023-05-24T19:28:18;102540.59;;;13.53;74.71
29163;BME280;20331;53.144;8.208;2023-05-24T19:38:40;102540.69;;;13.47;75.23
29163;BME280;20331;53.144;8.208;2023-05-24T19:49:01;102544.31;;;13.34;76.03
29163;BME280;20331;53.144;8.208;2023-05-24T19:59:23;102562.69;;;13.24;77.15
29163;BME280;20331;53.144;8.208;2023-05-24T20:09:44;102575.78;;;13.15;76.20
29163;BME280;20331;53.144;8.208;2023-05-24T20:20:06;102589.72;;;13.09;77.18
29163;BME280;20331;53.144;8.208;2023-05-24T20:30:28;102587.16;;;13.04;77.10
29163;BME280;20331;53.144;8.208;2023-05-24T20:40:50;102594.19;;;12.96;77.95
29163;BME280;20331;53.144;8.208;2023-05-24T20:51:11;102600.31;;;12.91;77.41
29163;BME280;20331;53.144;8.208;2023-05-24T21:01:33;102611.72;;;12.73;77.20
29163;BME280;20331;53.144;8.208;2023-05-24T21:11:54;102611.88;;;12.58;78.58
29163;BME280;20331;53.144;8.208;2023-05-24T21:22:16;102631.00;;;12.51;78.21
29163;BME280;20331;53.144;8.208;2023-05-24T21:32:39;102636.31;;;12.38;78.98
29163;BME280;20331;53.144;8.208;2023-05-24T21:43:01;102656.19;;;12.39;80.28
29163;BME280;20331;53.144;8.208;2023-05-24T21:53:23;102647.47;;;12.46;78.47
29163;BME280;20331;53.144;8.208;2023-05-24T22:03:44;102650.06;;;12.47;78.53
29163;BME280;20331;53.144;8.208;2023-05-24T22:14:06;102644.88;;;12.50;78.62
29163;BME280;20331;53.144;8.208;2023-05-24T22:24:27;102664.75;;;12.54;79.09
29163;BME280;20331;53.144;8.208;2023-05-24T22:34:49;102662.16;;;12.51;78.52
29163;BME280;20331;53.144;8.208;2023-05-24T22:45:10;102658.75;;;12.46;79.84
29163;BME280;20331;53.144;8.208;2023-05-24T22:55:32;102657.03;;;12.42;79.73
29163;BME280;20331;53.144;8.208;2023-05-24T23:05:53;102666.59;;;12.39;78.96
29163;BME280;20331;53.144;8.208;2023-05-24T23:16:15;102679.63;;;12.31;81.24
29163;BME280;20331;53.144;8.208;2023-05-24T23:26:38;102665.88;;;12.17;80.63
29163;BME280;20331;53.144;8.208;2023-05-24T23:37:00;102664.16;;;12.19;80.85
29163;BME280;20331;53.144;8.208;2023-05-24T23:47:21;102672.84;;;12.09;82.99
29163;BME280;20331;53.144;8.208;2023-05-24T23:57:42;102677.25;;;12.01;80.34
